createdAt,value
2023-07-14T00:00:41.347Z,6.38
2023-07-14T00:03:09.114Z,6.70
2023-07-14T00:05:39.302Z,6.30
2023-07-14T00:08:07.801Z,6.53
2023-07-14T00:10:38.423Z,8.02
2023-07-14T00:13:07.559Z,7.07
2023-07-14T00:15:36.482Z,6.47
2023-07-14T00:18:26.148Z,6.57
2023-07-14T00:20:54.600Z,6.40
2023-07-14T00:23:22.572Z,6.03
2023-07-14T00:25:53.177Z,6.65
2023-07-14T00:28:22.814Z,6.35
2023-07-14T00:30:51.848Z,6.15
2023-07-14T00:33:21.847Z,6.47
2023-07-14T00:35:49.356Z,6.05
2023-07-14T00:38:16.946Z,6.63
2023-07-14T00:40:46.196Z,6.70
2023-07-14T00:43:20.056Z,6.40
2023-07-14T00:46:01.621Z,6.80
2023-07-14T00:48:30.145Z,7.32
2023-07-14T00:51:02.591Z,6.43
2023-07-14T00:53:39.050Z,6.30
2023-07-14T00:56:18.114Z,7.35
2023-07-14T00:58:55.447Z,6.27
2023-07-14T01:01:29.998Z,6.60
2023-07-14T01:04:00.576Z,7.40
2023-07-14T01:06:31.316Z,7.18
2023-07-14T01:09:00.883Z,6.80
2023-07-14T01:11:33.726Z,7.00
2023-07-14T01:14:02.578Z,7.30
2023-07-14T01:16:36.485Z,6.90
2023-07-14T01:19:06.485Z,7.07
2023-07-14T01:21:34.665Z,7.30
2023-07-14T01:24:02.098Z,7.10
2023-07-14T01:26:42.413Z,7.00
2023-07-14T01:29:12.589Z,7.57
2023-07-14T01:31:40.664Z,7.43
2023-07-14T01:34:11.432Z,6.88
2023-07-14T01:36:41.223Z,6.90
2023-07-14T01:39:14.524Z,7.25
2023-07-14T01:41:45.279Z,6.03
2023-07-14T01:44:17.184Z,6.22
2023-07-14T01:46:45.771Z,6.18
2023-07-14T01:49:16.116Z,6.20
2023-07-14T01:51:47.403Z,6.32
2023-07-14T01:54:29.829Z,6.10
2023-07-14T01:56:59.374Z,6.65
2023-07-14T01:59:30.203Z,6.07
2023-07-14T02:02:05.309Z,6.83
2023-07-14T02:04:39.026Z,6.63
2023-07-14T02:07:12.988Z,7.20
2023-07-14T02:09:40.952Z,6.93
2023-07-14T02:12:13.952Z,7.47
2023-07-14T02:15:01.969Z,7.13
2023-07-14T02:17:32.680Z,6.55
2023-07-14T02:20:01.150Z,7.25
2023-07-14T02:22:35.321Z,6.90
2023-07-14T02:25:08.287Z,7.47
2023-07-14T02:27:37.696Z,7.20
2023-07-14T02:30:13.382Z,6.93
2023-07-14T02:32:42.978Z,6.70
2023-07-14T02:35:16.538Z,7.22
2023-07-14T02:38:13.164Z,7.13
2023-07-14T02:40:45.347Z,6.57
2023-07-14T02:43:20.905Z,6.63
2023-07-14T02:46:22.022Z,6.60
2023-07-14T02:48:55.587Z,6.63
2023-07-14T02:51:23.914Z,6.30
2023-07-14T02:53:51.198Z,6.60
2023-07-14T02:56:22.367Z,6.70
2023-07-14T02:58:54.545Z,7.40
2023-07-14T03:01:23.788Z,6.50
2023-07-14T03:04:06.378Z,7.15
2023-07-14T03:06:34.775Z,7.03
2023-07-14T03:09:02.542Z,6.40
2023-07-14T03:11:35.252Z,7.03
2023-07-14T03:14:04.028Z,7.13
2023-07-14T03:16:32.701Z,7.75
2023-07-14T03:19:00.256Z,6.57
2023-07-14T03:21:31.431Z,6.75
2023-07-14T03:24:00.442Z,6.53
2023-07-14T03:26:28.411Z,6.97
2023-07-14T03:28:55.686Z,6.38
2023-07-14T03:31:30.995Z,7.00
2023-07-14T03:33:58.253Z,7.07
2023-07-14T03:36:27.518Z,7.05
2023-07-14T03:39:18.440Z,7.13
2023-07-14T03:41:47.730Z,6.75
2023-07-14T03:44:24.228Z,7.03
2023-07-14T03:46:52.525Z,6.43
2023-07-14T03:49:22.204Z,6.85
2023-07-14T03:51:56.298Z,7.15
2023-07-14T03:54:23.653Z,6.97
2023-07-14T03:57:07.100Z,7.03
2023-07-14T03:59:35.722Z,6.40
2023-07-14T04:04:46.478Z,6.30
2023-07-14T04:07:17.837Z,6.40
2023-07-14T04:09:50.281Z,6.13
2023-07-14T04:12:19.967Z,6.35
2023-07-14T04:14:47.550Z,6.15
2023-07-14T04:17:16.147Z,6.38
2023-07-14T04:19:44.400Z,6.28
2023-07-14T04:22:25.774Z,6.93
2023-07-14T04:24:53.680Z,6.60
2023-07-14T04:27:22.202Z,6.70
2023-07-14T04:29:52.968Z,6.50
2023-07-14T04:32:29.532Z,6.57
2023-07-14T04:35:00.306Z,5.90
2023-07-14T04:37:30.815Z,6.68
2023-07-14T04:39:59.446Z,6.53
2023-07-14T04:42:32.283Z,7.20
2023-07-14T04:45:04.222Z,6.50
2023-07-14T04:47:31.973Z,6.93
2023-07-14T04:50:04.439Z,7.20
2023-07-14T04:52:35.797Z,7.13
2023-07-14T04:55:03.701Z,6.85
2023-07-14T04:57:32.394Z,6.95
2023-07-14T05:00:00.876Z,6.77
2023-07-14T05:02:37.764Z,6.97
2023-07-14T05:05:22.166Z,7.55
2023-07-14T05:07:59.990Z,7.20
2023-07-14T05:10:27.755Z,7.70
2023-07-14T05:13:03.917Z,6.67
2023-07-14T05:15:35.740Z,7.72
2023-07-14T05:18:10.986Z,7.38
2023-07-14T05:20:43.252Z,7.18
2023-07-14T05:23:18.987Z,7.00
2023-07-14T05:25:51.867Z,8.23
2023-07-14T05:28:26.239Z,7.32
2023-07-14T05:31:04.589Z,7.53
2023-07-14T05:33:34.969Z,7.57
2023-07-14T05:36:02.572Z,8.32
2023-07-14T05:38:36.894Z,7.13
2023-07-14T05:41:07.504Z,7.50
2023-07-14T05:43:35.748Z,7.05
2023-07-14T05:46:03.452Z,7.20
2023-07-14T05:48:31.237Z,7.45
2023-07-14T05:50:58.870Z,6.90
2023-07-14T05:53:34.184Z,7.72
2023-07-14T05:56:04.543Z,7.25
2023-07-14T05:58:35.366Z,7.32
2023-07-14T06:01:03.778Z,7.95
2023-07-14T06:03:34.500Z,7.07
2023-07-14T06:06:06.907Z,6.70
2023-07-14T06:08:36.127Z,7.38
2023-07-14T06:11:04.929Z,7.03
2023-07-14T06:13:35.439Z,7.45
2023-07-14T06:16:06.783Z,7.30
2023-07-14T06:18:34.275Z,7.65
2023-07-14T06:21:08.706Z,6.70
2023-07-14T06:23:43.327Z,8.90
2023-07-14T06:26:11.032Z,8.07
2023-07-14T06:28:41.494Z,8.93
2023-07-14T06:31:12.873Z,7.70
2023-07-14T06:33:44.196Z,8.25
2023-07-14T06:36:16.590Z,8.15
2023-07-14T06:38:46.504Z,7.88
2023-07-14T06:41:23.554Z,7.63
2023-07-14T06:43:51.922Z,8.85
2023-07-14T06:46:22.272Z,8.38
2023-07-14T06:48:49.739Z,9.35
2023-07-14T06:51:21.849Z,8.13
2023-07-14T06:53:55.989Z,7.37
2023-07-14T06:56:23.315Z,7.30
2023-07-14T06:58:53.883Z,7.60
2023-07-14T07:01:24.619Z,7.30
2023-07-14T07:04:11.624Z,8.32
2023-07-14T07:07:02.799Z,8.93
2023-07-14T07:09:39.053Z,10.25
2023-07-14T07:12:11.134Z,8.07
2023-07-14T07:14:40.980Z,8.35
2023-07-14T07:17:46.932Z,7.68
2023-07-14T07:20:32.871Z,7.33
2023-07-14T07:23:12.670Z,7.10
2023-07-14T07:26:06.257Z,7.53
2023-07-14T07:28:50.263Z,7.10
2023-07-14T07:31:30.101Z,7.78
2023-07-14T07:34:02.060Z,9.97
2023-07-14T07:36:32.787Z,9.65
2023-07-14T07:39:00.980Z,8.93
2023-07-14T07:41:33.829Z,9.80
2023-07-14T07:44:13.734Z,9.98
2023-07-14T07:46:48.134Z,9.10
2023-07-14T07:49:23.118Z,9.10
2023-07-14T07:51:56.296Z,9.07
2023-07-14T07:54:31.530Z,8.50
2023-07-14T07:57:06.183Z,7.60
2023-07-14T07:59:38.715Z,8.57
2023-07-14T08:02:22.756Z,10.15
2023-07-14T08:04:57.927Z,8.57
2023-07-14T08:07:30.300Z,9.05
2023-07-14T08:10:33.591Z,9.10
2023-07-14T08:12:54.475Z,8.67
2023-07-14T08:15:28.065Z,9.27
2023-07-14T08:17:56.415Z,9.63
2023-07-14T08:20:26.702Z,10.40
2023-07-14T08:22:55.099Z,9.55
2023-07-14T08:25:23.780Z,8.83
2023-07-14T08:28:06.681Z,9.30
2023-07-14T08:30:37.669Z,9.40
2023-07-14T08:33:07.516Z,8.45
2023-07-14T08:35:57.184Z,9.70
2023-07-14T08:50:03.346Z,8.98
2023-07-14T08:53:19.753Z,9.07
2023-07-14T08:59:22.314Z,8.95
2023-07-14T09:01:55.192Z,8.43
2023-07-14T09:05:45.703Z,8.40
2023-07-14T09:08:36.014Z,8.27
2023-07-14T09:18:36.747Z,8.93
2023-07-14T09:27:53.217Z,8.50
2023-07-14T09:28:54.950Z,7.97
2023-07-14T09:31:28.036Z,7.90
2023-07-14T09:48:48.633Z,6.07
2023-07-14T09:51:31.451Z,6.28
2023-07-14T09:54:03.648Z,6.60
2023-07-14T10:04:08.269Z,6.68
2023-07-14T10:15:10.413Z,6.63
2023-07-14T10:41:59.515Z,5.67
2023-07-14T10:44:37.127Z,6.53
2023-07-14T10:47:39.859Z,6.27
2023-07-14T10:50:16.375Z,10.50
2023-07-14T10:52:59.271Z,6.97
2023-07-14T10:55:29.643Z,6.53
2023-07-14T10:58:08.504Z,6.75
2023-07-14T11:00:56.373Z,6.80
2023-07-14T11:03:32.116Z,7.10
2023-07-14T11:06:03.762Z,6.28
2023-07-14T11:08:37.230Z,7.28
2023-07-14T11:11:17.295Z,7.22
2023-07-14T11:13:51.500Z,7.07
2023-07-14T11:16:24.904Z,7.70
2023-07-14T11:19:08.271Z,7.15
2023-07-14T11:22:19.806Z,7.47
2023-07-14T11:25:20.392Z,7.10
2023-07-14T11:28:09.456Z,6.80
2023-07-14T11:30:38.969Z,6.95
2023-07-14T11:33:46.899Z,6.57
2023-07-14T11:36:20.906Z,7.07
2023-07-14T11:39:03.221Z,7.57
2023-07-14T11:41:35.475Z,7.00
2023-07-14T11:44:13.903Z,7.18
2023-07-14T11:46:41.939Z,7.45
2023-07-14T11:49:26.410Z,7.05
2023-07-14T11:52:10.563Z,7.68
2023-07-14T11:54:55.454Z,7.50
2023-07-14T11:57:25.976Z,7.50
2023-07-14T11:59:59.150Z,7.70
2023-07-14T12:02:53.349Z,7.32
2023-07-14T12:05:34.105Z,7.38
2023-07-14T12:08:01.521Z,7.83
2023-07-14T12:10:57.659Z,7.28
2023-07-14T12:13:35.266Z,7.20
2023-07-14T12:16:04.139Z,7.50
2023-07-14T12:18:43.535Z,6.93
2023-07-14T12:21:28.183Z,7.23
2023-07-14T12:24:31.374Z,6.68
2023-07-14T12:27:24.963Z,7.35
2023-07-14T12:30:04.469Z,7.35
2023-07-14T12:32:46.886Z,6.50
2023-07-14T12:35:18.742Z,7.10
2023-07-14T12:38:06.298Z,7.22
2023-07-14T12:40:33.781Z,6.45
2023-07-14T12:43:04.047Z,6.85
2023-07-14T12:45:35.478Z,7.65
2023-07-14T12:48:04.573Z,7.37
2023-07-14T12:50:36.105Z,7.85
2023-07-14T12:53:07.168Z,7.25
2023-07-14T12:55:37.917Z,7.22
2023-07-14T12:58:21.738Z,7.60
2023-07-14T13:00:56.166Z,7.60
2023-07-14T13:03:26.238Z,7.93
2023-07-14T13:05:56.332Z,8.10
2023-07-14T13:08:31.716Z,7.60
2023-07-14T13:11:03.710Z,7.60
2023-07-14T13:13:45.397Z,7.40
2023-07-14T13:16:19.908Z,8.15
2023-07-14T13:19:03.036Z,7.60
2023-07-14T13:21:42.609Z,7.70
2023-07-14T13:24:24.294Z,7.70
2023-07-14T13:26:58.480Z,7.40
2023-07-14T13:29:38.435Z,7.70
2023-07-14T13:32:31.553Z,7.88
2023-07-14T13:37:54.762Z,7.38
2023-07-14T13:40:30.728Z,6.90
2023-07-14T13:43:03.605Z,7.10
2023-07-14T13:45:45.255Z,6.75
2023-07-14T13:48:29.437Z,7.13
2023-07-14T13:51:07.587Z,7.53
2023-07-14T13:53:43.510Z,7.63
2023-07-14T13:56:26.330Z,7.85
2023-07-14T13:58:55.456Z,7.35
2023-07-14T14:01:33.070Z,7.43
2023-07-14T14:04:06.730Z,7.45
2023-07-14T14:06:37.652Z,7.37
2023-07-14T14:09:12.379Z,6.93
2023-07-14T14:11:48.824Z,7.05
2023-07-14T14:14:26.032Z,7.15
2023-07-14T14:17:39.930Z,7.38
2023-07-14T14:19:52.850Z,7.40
2023-07-14T14:22:22.529Z,6.38
2023-07-14T14:24:52.545Z,6.85
2023-07-14T14:27:28.222Z,6.85
2023-07-14T14:30:07.969Z,7.15
2023-07-14T14:32:47.154Z,6.43
2023-07-14T14:35:28.438Z,7.38
2023-07-14T14:38:32.647Z,7.57
2023-07-14T14:41:32.845Z,6.95
2023-07-14T14:44:00.499Z,7.55
2023-07-14T14:46:40.063Z,6.80
2023-07-14T14:49:11.828Z,7.38
2023-07-14T14:52:03.904Z,7.05
2023-07-14T14:54:36.402Z,6.90
2023-07-14T14:57:27.879Z,7.07
2023-07-14T15:00:11.222Z,6.50
2023-07-14T15:02:48.317Z,6.65
2023-07-14T15:05:21.683Z,6.65
2023-07-14T15:07:58.739Z,7.18
2023-07-14T15:13:48.785Z,6.60
2023-07-14T15:16:17.932Z,6.05
2023-07-14T15:18:58.065Z,6.85
2023-07-14T15:21:53.777Z,6.68
2023-07-14T15:24:23.767Z,6.55
2023-07-14T15:27:10.671Z,6.60
2023-07-14T15:32:41.932Z,6.57
2023-07-14T15:38:29.740Z,6.38
2023-07-14T15:41:03.198Z,6.57
2023-07-14T15:43:39.401Z,6.32
2023-07-14T15:46:13.814Z,6.55
2023-07-14T15:48:59.953Z,6.32
2023-07-14T15:51:30.583Z,6.25
2023-07-14T15:54:14.148Z,6.83
2023-07-14T15:56:41.747Z,6.78
2023-07-14T15:59:37.050Z,6.38
2023-07-14T16:02:10.482Z,5.75
2023-07-14T16:04:44.241Z,6.57
2023-07-14T16:07:21.650Z,6.33
2023-07-14T16:09:57.628Z,6.20
2023-07-14T16:12:30.951Z,6.80
2023-07-14T16:15:02.313Z,6.85
2023-07-14T16:17:35.712Z,7.43
2023-07-14T16:20:52.460Z,6.63
2023-07-14T16:23:22.299Z,7.65
2023-07-14T16:25:52.773Z,6.82
2023-07-14T16:28:46.609Z,6.85
2023-07-14T16:31:23.416Z,6.45
2023-07-14T16:34:11.868Z,7.53
2023-07-14T16:36:42.530Z,7.13
2023-07-14T16:39:24.059Z,6.68
2023-07-14T16:41:57.903Z,6.85
2023-07-14T16:44:27.910Z,6.50
2023-07-14T16:47:01.860Z,7.43
2023-07-14T16:49:39.365Z,7.45
2023-07-14T16:52:33.927Z,7.25
2023-07-14T16:55:04.500Z,6.40
2023-07-14T16:57:41.226Z,6.78
2023-07-14T17:00:39.188Z,7.07
2023-07-14T17:03:32.522Z,7.15
2023-07-14T17:06:15.537Z,6.90
2023-07-14T17:08:47.807Z,7.35
2023-07-14T17:11:18.440Z,7.63
2023-07-14T17:14:00.076Z,7.33
2023-07-14T17:16:28.132Z,7.75
2023-07-14T17:18:55.677Z,7.63
2023-07-14T17:21:25.924Z,7.75
2023-07-14T17:23:58.526Z,7.55
2023-07-14T17:26:33.804Z,8.00
2023-07-14T17:29:13.434Z,7.60
2023-07-14T17:31:43.193Z,7.97
2023-07-14T17:34:31.853Z,8.10
2023-07-14T17:37:00.352Z,7.78
2023-07-14T17:39:47.521Z,8.03
2023-07-14T17:42:32.561Z,7.80
2023-07-14T17:45:08.951Z,8.68
2023-07-14T17:50:23.909Z,9.13
2023-07-14T17:50:50.423Z,8.18
2023-07-14T17:53:37.511Z,7.90
2023-07-14T17:58:04.674Z,8.52
2023-07-14T18:01:19.900Z,8.60
2023-07-14T18:04:16.098Z,8.20
2023-07-14T18:06:49.739Z,7.90
2023-07-14T18:09:32.652Z,7.70
2023-07-14T18:12:12.979Z,8.05
2023-07-14T18:14:47.879Z,7.57
2023-07-14T18:17:20.921Z,7.70
2023-07-14T18:19:56.510Z,7.38
2023-07-14T18:22:38.675Z,7.80
2023-07-14T18:25:34.373Z,8.30
2023-07-14T18:28:17.734Z,7.65
2023-07-14T18:30:57.930Z,8.07
2023-07-14T18:33:27.292Z,7.63
2023-07-14T18:35:59.444Z,7.60
2023-07-14T18:39:02.006Z,7.63
2023-07-14T18:41:32.200Z,7.50
2023-07-14T18:44:10.578Z,7.60
2023-07-14T18:46:40.098Z,7.35
2023-07-14T18:49:26.351Z,7.70
2023-07-14T18:51:53.928Z,8.23
2023-07-14T18:54:36.760Z,8.85
2023-07-14T18:57:19.309Z,7.85
2023-07-14T18:59:49.110Z,9.07
2023-07-14T19:02:39.320Z,8.90
2023-07-14T19:05:19.329Z,7.93
2023-07-14T19:07:48.124Z,8.05
2023-07-14T19:10:26.394Z,8.15
2023-07-14T19:12:54.404Z,7.47
2023-07-14T19:15:22.775Z,7.33
2023-07-14T19:17:54.537Z,6.80
2023-07-14T19:20:31.346Z,6.60
2023-07-14T19:23:03.638Z,6.30
2023-07-14T19:25:31.218Z,5.93
2023-07-14T19:28:07.054Z,6.27
2023-07-14T19:30:40.448Z,5.95
2023-07-14T19:33:26.359Z,5.57
2023-07-14T19:35:59.279Z,6.03
2023-07-14T19:38:32.881Z,6.07
2023-07-14T19:41:00.124Z,6.10
2023-07-14T19:43:33.644Z,5.45
2023-07-14T19:46:15.969Z,5.07
2023-07-14T19:48:44.846Z,6.38
2023-07-14T19:51:28.094Z,6.95
2023-07-14T19:54:04.954Z,7.30
2023-07-14T19:56:42.080Z,7.57
2023-07-14T19:59:19.882Z,7.90
2023-07-14T20:02:08.756Z,7.78
2023-07-14T20:04:53.745Z,8.00
2023-07-14T20:07:24.215Z,8.37
2023-07-14T20:09:51.747Z,9.60
2023-07-14T20:12:25.251Z,8.15
2023-07-14T20:14:53.014Z,8.73
2023-07-14T20:17:21.040Z,9.18
2023-07-14T20:19:53.183Z,9.00
2023-07-14T20:22:24.483Z,8.70
2023-07-14T20:24:52.298Z,8.75
2023-07-14T20:27:21.263Z,8.93
2023-07-14T20:29:53.432Z,8.45
2023-07-14T20:32:23.172Z,9.13
2023-07-14T20:35:04.436Z,8.45
2023-07-14T20:37:37.811Z,8.50
2023-07-14T20:40:07.740Z,8.88
2023-07-14T20:42:37.955Z,8.40
2023-07-14T20:45:19.668Z,8.97
2023-07-14T20:47:47.399Z,8.80
2023-07-14T20:50:21.688Z,8.40
2023-07-14T20:52:54.755Z,8.70
2023-07-14T20:55:30.973Z,8.40
2023-07-14T20:58:04.494Z,8.57
2023-07-14T21:00:51.499Z,8.25
2023-07-14T21:03:23.664Z,8.48
2023-07-14T21:05:57.983Z,8.77
2023-07-14T21:08:37.510Z,8.93
2023-07-14T21:11:11.039Z,9.60
2023-07-14T21:13:39.850Z,8.63
2023-07-14T21:16:07.379Z,9.70
2023-07-14T21:18:42.314Z,8.45
2023-07-14T21:21:31.123Z,8.77
2023-07-14T21:24:00.199Z,8.10
2023-07-14T21:26:29.188Z,8.73
2023-07-14T21:29:07.002Z,9.05
2023-07-14T21:31:49.063Z,8.65
2023-07-14T21:34:23.214Z,8.90
2023-07-14T21:36:59.749Z,8.67
2023-07-14T21:39:35.685Z,9.00
2023-07-14T21:42:06.869Z,8.10
2023-07-14T21:44:40.773Z,9.48
2023-07-14T21:47:39.896Z,8.90
2023-07-14T21:50:27.359Z,9.37
2023-07-14T21:53:20.617Z,8.63
2023-07-14T21:56:00.820Z,8.75
2023-07-14T21:58:43.376Z,8.70
2023-07-14T22:01:38.202Z,8.88
2023-07-14T22:04:21.718Z,8.47
2023-07-14T22:06:51.823Z,9.35
2023-07-14T22:12:19.984Z,9.40
2023-07-14T22:14:55.173Z,9.05
2023-07-14T22:17:40.529Z,8.40
2023-07-14T22:20:32.450Z,9.30
2023-07-14T22:23:18.855Z,8.57
2023-07-14T22:26:03.130Z,9.07
2023-07-14T22:28:40.665Z,8.70
2023-07-14T22:31:28.735Z,8.50
2023-07-14T22:34:08.630Z,8.93
2023-07-14T22:36:47.866Z,8.70
2023-07-14T22:40:07.228Z,8.95
2023-07-14T22:42:37.285Z,8.23
2023-07-14T22:45:17.301Z,8.47
2023-07-14T22:47:45.286Z,8.50
2023-07-14T22:50:15.487Z,9.20
2023-07-14T22:52:50.106Z,9.00
2023-07-14T22:55:19.360Z,8.75
2023-07-14T22:57:46.913Z,8.80
2023-07-14T23:00:15.270Z,9.07
2023-07-14T23:02:49.606Z,9.27
2023-07-14T23:05:22.146Z,7.97
2023-07-14T23:07:59.746Z,10.18
2023-07-14T23:10:30.590Z,8.37
2023-07-14T23:13:01.281Z,8.82
2023-07-14T23:15:31.598Z,8.13
2023-07-14T23:18:00.055Z,8.60
2023-07-14T23:20:30.409Z,8.35
2023-07-14T23:23:00.383Z,8.80
2023-07-14T23:25:33.509Z,8.95
2023-07-14T23:28:10.115Z,8.50
2023-07-14T23:30:43.638Z,8.70
2023-07-14T23:33:21.774Z,8.35
2023-07-14T23:35:57.766Z,8.53
2023-07-14T23:38:39.558Z,8.70
2023-07-14T23:41:16.892Z,8.30
2023-07-14T23:44:05.692Z,9.23
2023-07-14T23:46:40.781Z,8.65
2023-07-14T23:49:11.464Z,8.20
2023-07-14T23:51:49.667Z,8.25
2023-07-14T23:54:39.088Z,8.32
2023-07-14T23:57:28.946Z,8.38
